Time;durP1;ratioP1;P1;durP2;ratioP2;P2;SDS_P1;SDS_P2;PMS_P1;PMS_P2;Temp;Humidity;BMP_temperature;BMP_pressure;BME280_temperature;BME280_humidity;BME280_pressure;Samples;Min_cycle;Max_cycle;Signal;HPM_P1;HPM_P2
2023/08/22 00:00:14;;;;;;;6.78;4.30;;;18.00;99.90;;;;;;5004116;28;20050;-56
2023/08/22 00:02:40;;;;;;;6.90;4.25;;;18.10;99.90;;;;;;5005642;28;20049;-58
2023/08/22 00:05:07;;;;;;;5.97;3.90;;;18.10;99.90;;;;;;5005660;28;20040;-57
2023/08/22 00:07:33;;;;;;;6.25;3.92;;;18.10;99.90;;;;;;5002859;28;20216;-53
2023/08/22 00:09:59;;;;;;;6.47;4.03;;;18.00;99.90;;;;;;5005257;28;20050;-56
2023/08/22 00:12:24;;;;;;;7.50;3.97;;;18.00;99.90;;;;;;5004997;28;20057;-58
2023/08/22 00:14:50;;;;;;;8.00;4.38;;;18.00;99.90;;;;;;5003239;28;20049;-58
2023/08/22 00:17:16;;;;;;;7.93;4.32;;;18.00;99.90;;;;;;5004881;28;20505;-58
2023/08/22 00:19:43;;;;;;;6.50;4.25;;;18.10;99.90;;;;;;5003796;28;20395;-57
2023/08/22 00:22:08;;;;;;;7.53;4.20;;;18.10;99.90;;;;;;5004871;28;20042;-55
2023/08/22 00:24:35;;;;;;;6.35;4.50;;;18.10;99.90;;;;;;5004349;28;20037;-55
2023/08/22 00:27:01;;;;;;;7.47;4.40;;;18.20;99.90;;;;;;5005475;28;20120;-58
2023/08/22 00:29:27;;;;;;;8.82;4.75;;;18.20;99.90;;;;;;5004227;28;20046;-57
2023/08/22 00:31:52;;;;;;;8.48;4.63;;;18.20;99.90;;;;;;5019606;28;20080;-56
2023/08/22 00:34:18;;;;;;;6.40;4.53;;;18.20;99.90;;;;;;5004815;28;20100;-56
2023/08/22 00:36:44;;;;;;;8.32;4.32;;;18.20;99.90;;;;;;5004839;28;20140;-58
2023/08/22 00:39:09;;;;;;;8.38;4.70;;;18.20;99.90;;;;;;5006744;28;20056;-58
2023/08/22 00:41:35;;;;;;;11.13;4.50;;;18.30;99.90;;;;;;5008877;28;20538;-57
2023/08/22 00:44:01;;;;;;;7.22;4.60;;;18.30;99.90;;;;;;5006690;28;20408;-57
2023/08/22 00:46:29;;;;;;;6.72;4.43;;;18.30;99.90;;;;;;5008718;28;20092;-57
2023/08/22 00:48:55;;;;;;;9.73;4.70;;;18.30;99.90;;;;;;5008615;28;20111;-58
2023/08/22 00:51:22;;;;;;;9.05;4.30;;;18.30;99.90;;;;;;5008476;28;20378;-57
2023/08/22 00:53:48;;;;;;;8.35;4.32;;;18.20;99.90;;;;;;5007369;28;20406;-55
2023/08/22 00:56:14;;;;;;;7.43;4.90;;;18.20;99.90;;;;;;5012884;28;20179;-57
2023/08/22 00:58:41;;;;;;;9.13;5.47;;;18.20;99.90;;;;;;5013886;28;20068;-58
2023/08/22 01:01:08;;;;;;;7.85;5.22;;;18.20;99.90;;;;;;5008089;28;20096;-58
2023/08/22 01:03:34;;;;;;;7.07;5.55;;;18.10;99.90;;;;;;5008590;28;20080;-56
2023/08/22 01:06:26;;;;;;;9.88;5.55;;;18.00;99.90;;;;;;5007268;28;20049;-55
2023/08/22 01:09:00;;;;;;;10.18;5.93;;;18.00;99.90;;;;;;5007132;28;20069;-57
2023/08/22 01:11:40;;;;;;;9.68;6.88;;;18.00;99.90;;;;;;5007784;28;20080;-57
2023/08/22 01:14:09;;;;;;;11.65;7.43;;;17.90;99.90;;;;;;5079789;22;20054;-57
2023/08/22 01:16:36;;;;;;;8.85;6.68;;;17.90;99.90;;;;;;4992045;28;20047;-58
2023/08/22 01:19:04;;;;;;;8.90;5.97;;;17.80;99.90;;;;;;5000307;28;20940;-58
2023/08/22 01:21:34;;;;;;;11.75;7.55;;;17.80;99.90;;;;;;5027453;28;20053;-58
2023/08/22 01:24:01;;;;;;;10.57;7.93;;;17.90;99.90;;;;;;5027118;28;20052;-55
2023/08/22 01:26:27;;;;;;;11.20;7.28;;;17.90;99.90;;;;;;5000030;28;20172;-58
2023/08/22 01:28:59;;;;;;;12.43;9.02;;;17.80;99.90;;;;;;4988277;28;20149;-57
2023/08/22 01:31:32;;;;;;;11.43;8.50;;;17.70;99.90;;;;;;4990353;28;20077;-55
2023/08/22 01:34:15;;;;;;;15.02;9.27;;;17.70;99.90;;;;;;4995316;28;20389;-56
2023/08/22 01:36:45;;;;;;;12.02;9.27;;;17.70;99.90;;;;;;4988027;28;20046;-57
2023/08/22 01:39:16;;;;;;;12.13;9.35;;;17.70;99.90;;;;;;4988718;28;20121;-57
2023/08/22 01:41:41;;;;;;;13.55;9.65;;;17.80;99.90;;;;;;4988247;28;20046;-57
2023/08/22 01:44:07;;;;;;;14.25;9.57;;;17.80;99.90;;;;;;4987019;28;20057;-58
2023/08/22 01:46:33;;;;;;;13.68;9.82;;;17.80;99.90;;;;;;4988368;28;20038;-58
2023/08/22 01:48:59;;;;;;;13.77;10.20;;;17.80;99.90;;;;;;4987703;28;20104;-57
2023/08/22 01:51:24;;;;;;;14.52;9.77;;;17.80;99.90;;;;;;4987817;28;20424;-58
2023/08/22 01:53:50;;;;;;;13.48;10.02;;;17.80;99.90;;;;;;4987300;28;20400;-58
2023/08/22 01:56:15;;;;;;;13.85;9.68;;;17.70;99.90;;;;;;4993968;28;20503;-58
2023/08/22 01:58:41;;;;;;;13.48;9.98;;;17.70;99.90;;;;;;4993397;28;20051;-58
2023/08/22 02:01:13;;;;;;;15.65;10.80;;;17.70;99.90;;;;;;4986496;28;20597;-54
2023/08/22 02:03:40;;;;;;;13.52;10.35;;;17.70;99.90;;;;;;4987706;28;20065;-58
2023/08/22 02:06:06;;;;;;;13.25;9.43;;;17.70;99.90;;;;;;4987293;28;20058;-57
2023/08/22 02:08:31;;;;;;;12.32;10.30;;;17.70;99.90;;;;;;4987370;28;20609;-54
2023/08/22 02:10:57;;;;;;;13.57;10.18;;;17.70;99.90;;;;;;4988103;28;20042;-58
2023/08/22 02:13:23;;;;;;;13.65;10.13;;;17.70;99.90;;;;;;4987972;28;20444;-58
2023/08/22 02:15:49;;;;;;;13.32;10.18;;;17.70;99.90;;;;;;4986598;28;20070;-56
2023/08/22 02:18:14;;;;;;;13.77;10.48;;;17.60;99.90;;;;;;4986895;28;20050;-57
2023/08/22 02:20:40;;;;;;;12.13;9.68;;;17.60;99.90;;;;;;4987267;28;20492;-57
2023/08/22 02:23:06;;;;;;;13.73;10.02;;;17.70;99.90;;;;;;4987426;28;20045;-58
2023/08/22 02:25:32;;;;;;;12.48;9.90;;;17.70;99.90;;;;;;4988061;28;20723;-58
2023/08/22 02:27:58;;;;;;;15.35;10.38;;;17.70;99.90;;;;;;4987207;28;20065;-58
2023/08/22 02:30:24;;;;;;;14.80;9.63;;;17.70;99.90;;;;;;4986342;28;20114;-56
2023/08/22 02:32:50;;;;;;;11.63;9.55;;;17.70;99.90;;;;;;4987392;28;20189;-57
2023/08/22 02:35:15;;;;;;;13.30;9.35;;;17.70;99.90;;;;;;4986561;28;20108;-59
2023/08/22 02:37:41;;;;;;;14.20;9.52;;;17.70;99.90;;;;;;4986322;28;20034;-56
2023/08/22 02:40:09;;;;;;;14.23;9.50;;;17.70;99.90;;;;;;4986873;28;20133;-57
2023/08/22 02:42:35;;;;;;;12.10;8.55;;;17.70;99.90;;;;;;4985211;28;20125;-56
2023/08/22 02:45:01;;;;;;;13.57;9.38;;;17.70;99.90;;;;;;4986301;28;20631;-58
2023/08/22 02:47:28;;;;;;;12.07;9.25;;;17.70;99.90;;;;;;4987100;28;20046;-58
2023/08/22 02:49:53;;;;;;;15.85;9.85;;;17.70;99.90;;;;;;4986591;28;20084;-56
2023/08/22 02:52:19;;;;;;;10.65;8.80;;;17.70;99.90;;;;;;4986869;28;20042;-56
2023/08/22 02:54:45;;;;;;;11.68;8.57;;;17.60;99.90;;;;;;4987678;28;20770;-57
2023/08/22 02:57:10;;;;;;;13.88;9.27;;;17.60;99.90;;;;;;4998212;28;20044;-57
2023/08/22 02:59:36;;;;;;;12.70;9.25;;;17.60;99.90;;;;;;4985610;28;20158;-57
2023/08/22 03:02:03;;;;;;;15.90;9.43;;;17.50;99.90;;;;;;4986366;28;20069;-57
2023/08/22 03:04:29;;;;;;;13.30;9.10;;;17.50;99.90;;;;;;4986807;28;20088;-58
2023/08/22 03:06:54;;;;;;;11.15;8.90;;;17.50;99.90;;;;;;4986925;28;20042;-57
2023/08/22 03:09:21;;;;;;;12.38;10.68;;;17.50;99.90;;;;;;4985930;28;20536;-55
2023/08/22 03:11:47;;;;;;;11.52;9.57;;;17.50;99.90;;;;;;4986425;28;20054;-57
2023/08/22 03:14:13;;;;;;;13.52;9.27;;;17.50;99.90;;;;;;4986006;28;20065;-57
2023/08/22 03:16:38;;;;;;;12.88;9.48;;;17.50;99.90;;;;;;4986432;28;20130;-58
2023/08/22 03:19:05;;;;;;;16.40;10.18;;;17.60;99.90;;;;;;4986041;28;20046;-56
2023/08/22 03:21:30;;;;;;;12.85;10.40;;;17.60;99.90;;;;;;4986109;28;20053;-55
2023/08/22 03:23:56;;;;;;;13.85;10.40;;;17.40;99.90;;;;;;4986234;28;20042;-57
2023/08/22 03:26:21;;;;;;;14.38;10.75;;;17.50;99.90;;;;;;4986201;28;20050;-57
2023/08/22 03:28:47;;;;;;;17.77;11.63;;;17.40;99.90;;;;;;4985134;28;20064;-56
2023/08/22 03:31:13;;;;;;;18.02;11.43;;;17.40;99.90;;;;;;4986550;28;20516;-58
2023/08/22 03:33:39;;;;;;;15.32;12.48;;;17.40;99.90;;;;;;4985805;28;20047;-54
2023/08/22 03:36:05;;;;;;;16.85;12.35;;;17.40;99.90;;;;;;4986142;28;20056;-58
2023/08/22 03:38:30;;;;;;;17.60;12.32;;;17.30;99.90;;;;;;4985901;28;20053;-57
2023/08/22 03:40:56;;;;;;;19.98;12.45;;;17.30;99.90;;;;;;4985834;28;20038;-57
2023/08/22 03:43:22;;;;;;;15.18;12.70;;;17.30;99.90;;;;;;4985408;28;20042;-58
2023/08/22 03:45:48;;;;;;;19.08;13.52;;;17.30;99.90;;;;;;4984929;28;20046;-54
2023/08/22 03:48:14;;;;;;;17.20;12.90;;;17.20;99.90;;;;;;4986078;28;20050;-57
2023/08/22 03:50:41;;;;;;;16.42;12.90;;;17.20;99.90;;;;;;4985544;28;20053;-58
2023/08/22 03:53:07;;;;;;;17.30;12.38;;;17.10;99.90;;;;;;4986137;28;20084;-54
2023/08/22 03:55:33;;;;;;;15.90;12.60;;;17.10;99.90;;;;;;4988247;28;20137;-57
2023/08/22 03:57:58;;;;;;;17.08;13.95;;;17.00;99.90;;;;;;4994135;28;20109;-57
2023/08/22 04:00:25;;;;;;;16.25;12.82;;;16.90;99.90;;;;;;4984613;28;20073;-56
2023/08/22 04:02:58;;;;;;;14.93;12.68;;;17.00;99.90;;;;;;4985846;28;20093;-57
2023/08/22 04:05:25;;;;;;;18.77;12.30;;;17.00;99.90;;;;;;4985490;28;20042;-58
2023/08/22 04:07:51;;;;;;;16.15;12.93;;;17.10;99.90;;;;;;4985659;28;20155;-57
2023/08/22 04:10:18;;;;;;;17.48;12.48;;;17.00;99.90;;;;;;4986106;28;20042;-56
2023/08/22 04:12:43;;;;;;;15.65;12.80;;;17.00;99.90;;;;;;4985190;28;20065;-57
2023/08/22 04:15:11;;;;;;;16.42;12.73;;;17.00;99.90;;;;;;4984083;28;20049;-57
2023/08/22 04:17:38;;;;;;;15.38;12.30;;;17.00;99.90;;;;;;4986166;28;20101;-58
2023/08/22 04:20:06;;;;;;;15.65;11.82;;;17.00;99.90;;;;;;4985766;28;20077;-57
2023/08/22 04:22:32;;;;;;;15.85;12.15;;;16.90;99.90;;;;;;4984751;28;20358;-53
2023/08/22 04:24:57;;;;;;;13.68;11.32;;;16.90;99.90;;;;;;4985501;28;20042;-58
2023/08/22 04:27:23;;;;;;;16.70;12.20;;;16.90;99.90;;;;;;4983807;28;20042;-55
2023/08/22 04:29:49;;;;;;;16.15;12.15;;;16.90;99.90;;;;;;4984006;28;20042;-52
2023/08/22 04:32:14;;;;;;;15.48;13.27;;;16.80;99.90;;;;;;4983973;28;20111;-58
2023/08/22 04:34:40;;;;;;;17.80;12.77;;;16.80;99.90;;;;;;4985580;28;20065;-58
2023/08/22 04:37:05;;;;;;;18.10;13.13;;;16.80;99.90;;;;;;4986121;28;20046;-53
2023/08/22 04:39:31;;;;;;;15.68;12.95;;;16.60;99.90;;;;;;4985230;28;20050;-57
2023/08/22 04:41:57;;;;;;;15.38;12.45;;;16.60;99.90;;;;;;4984538;28;20042;-57
2023/08/22 04:44:22;;;;;;;15.57;13.00;;;16.60;99.90;;;;;;4984797;28;20049;-57
2023/08/22 04:46:48;;;;;;;16.05;14.13;;;16.50;99.90;;;;;;4985355;28;20125;-57
2023/08/22 04:49:13;;;;;;;13.85;12.38;;;16.50;99.90;;;;;;4984846;28;20046;-58
2023/08/22 04:51:39;;;;;;;17.80;13.02;;;16.50;99.90;;;;;;4985219;28;20042;-54
2023/08/22 04:54:05;;;;;;;17.17;14.35;;;16.50;99.90;;;;;;4985696;28;20054;-56
2023/08/22 04:56:30;;;;;;;16.40;14.05;;;16.40;99.90;;;;;;4992935;28;20101;-55
2023/08/22 04:58:56;;;;;;;18.33;14.35;;;16.40;99.90;;;;;;4986744;28;20388;-54
2023/08/22 05:01:21;;;;;;;17.45;14.32;;;16.40;99.90;;;;;;4985323;28;20133;-56
2023/08/22 05:03:47;;;;;;;16.73;13.77;;;16.50;99.90;;;;;;4985169;28;20056;-56
2023/08/22 05:06:13;;;;;;;18.65;15.32;;;16.50;99.90;;;;;;4984478;28;20085;-57
2023/08/22 05:08:38;;;;;;;17.92;15.57;;;16.50;99.90;;;;;;4984874;28;20086;-58
2023/08/22 05:11:04;;;;;;;25.50;16.02;;;16.60;99.90;;;;;;4984787;28;20034;-56
2023/08/22 05:13:30;;;;;;;19.33;15.48;;;16.60;99.90;;;;;;4998906;28;20073;-58
2023/08/22 05:15:55;;;;;;;18.55;14.98;;;16.70;99.90;;;;;;4984422;28;20085;-56
2023/08/22 05:18:21;;;;;;;19.05;15.20;;;16.70;99.90;;;;;;4985850;28;20100;-57
2023/08/22 05:20:50;;;;;;;17.08;14.90;;;16.70;99.90;;;;;;4984484;28;20713;-56
2023/08/22 05:23:16;;;;;;;19.00;14.60;;;16.70;99.90;;;;;;4984302;28;20586;-57
2023/08/22 05:25:42;;;;;;;17.50;14.43;;;16.70;99.90;;;;;;4990448;28;20122;-55
2023/08/22 05:28:08;;;;;;;18.73;15.10;;;16.70;99.90;;;;;;5007429;28;20542;-56
2023/08/22 05:30:36;;;;;;;18.30;15.25;;;16.90;99.90;;;;;;5007011;28;20041;-58
2023/08/22 05:33:02;;;;;;;19.95;15.13;;;16.70;99.90;;;;;;5008557;28;20093;-57
2023/08/22 05:35:28;;;;;;;21.00;16.45;;;16.80;99.90;;;;;;5007758;28;20053;-55
2023/08/22 05:37:54;;;;;;;21.40;16.17;;;16.80;99.90;;;;;;5007813;28;20113;-56
2023/08/22 05:40:19;;;;;;;19.23;15.80;;;16.80;99.90;;;;;;5006307;28;20049;-58
2023/08/22 05:42:45;;;;;;;18.88;14.88;;;17.00;99.90;;;;;;5007994;28;20062;-57
2023/08/22 05:45:11;;;;;;;19.90;14.90;;;17.10;99.90;;;;;;5006300;28;20046;-55
2023/08/22 05:47:36;;;;;;;16.58;14.63;;;17.20;99.90;;;;;;5006884;28;20111;-57
2023/08/22 05:50:03;;;;;;;15.52;13.38;;;17.40;99.90;;;;;;5007986;28;20101;-57
2023/08/22 05:52:29;;;;;;;15.73;12.63;;;17.90;99.90;;;;;;5007133;28;20042;-57
2023/08/22 05:54:55;;;;;;;15.15;12.00;;;18.50;99.90;;;;;;5005959;28;20053;-57
2023/08/22 05:57:22;;;;;;;15.30;12.13;;;19.10;99.90;;;;;;4997959;28;20038;-56
2023/08/22 05:59:49;;;;;;;15.43;12.73;;;19.30;99.90;;;;;;4987322;28;20095;-59
2023/08/22 06:02:15;;;;;;;18.23;14.00;;;19.20;99.90;;;;;;4987534;28;20073;-56
2023/08/22 06:04:40;;;;;;;19.70;15.57;;;19.10;99.90;;;;;;4986970;28;20054;-57
2023/08/22 06:07:06;;;;;;;19.63;14.93;;;19.00;99.90;;;;;;4987256;28;20038;-58
2023/08/22 06:09:31;;;;;;;21.85;17.20;;;18.80;99.90;;;;;;4987940;28;20042;-58
2023/08/22 06:11:57;;;;;;;21.13;16.80;;;18.60;99.90;;;;;;4987437;28;20504;-57
2023/08/22 06:14:23;;;;;;;20.95;18.35;;;18.80;99.90;;;;;;4985645;28;20062;-58
2023/08/22 06:16:48;;;;;;;21.23;18.27;;;19.30;99.90;;;;;;4986768;28;20185;-57
2023/08/22 06:19:14;;;;;;;24.75;16.42;;;19.50;99.90;;;;;;4987221;28;20112;-57
2023/08/22 06:21:40;;;;;;;18.15;13.40;;;19.40;99.90;;;;;;4986714;28;20042;-57
2023/08/22 06:24:05;;;;;;;14.35;11.15;;;19.20;99.90;;;;;;4986820;28;20042;-55
2023/08/22 06:26:31;;;;;;;12.68;9.70;;;19.30;99.90;;;;;;4987107;28;20128;-58
2023/08/22 06:28:57;;;;;;;13.80;10.10;;;19.40;99.90;;;;;;4985357;28;20048;-57
2023/08/22 06:31:23;;;;;;;13.32;10.18;;;19.30;99.90;;;;;;4988513;28;20046;-58
2023/08/22 06:33:49;;;;;;;16.92;9.95;;;19.10;99.90;;;;;;5000069;28;20120;-55
2023/08/22 06:36:15;;;;;;;14.75;10.05;;;19.00;99.90;;;;;;5005250;28;20053;-58
2023/08/22 06:38:40;;;;;;;14.75;10.35;;;18.70;99.90;;;;;;4992072;28;20046;-58
2023/08/22 06:41:07;;;;;;;13.90;9.80;;;18.80;99.90;;;;;;4986358;28;20057;-57
2023/08/22 06:43:33;;;;;;;13.07;9.43;;;19.20;99.90;;;;;;4994113;28;20045;-57
2023/08/22 06:45:59;;;;;;;14.98;9.70;;;19.70;99.90;;;;;;5003992;28;20499;-57
2023/08/22 06:48:26;;;;;;;13.98;9.68;;;20.30;99.90;;;;;;4987747;28;20050;-58
2023/08/22 06:50:52;;;;;;;12.77;9.63;;;20.80;99.90;;;;;;4986220;28;20046;-56
2023/08/22 06:53:18;;;;;;;15.57;9.10;;;21.10;99.90;;;;;;4985509;28;20393;-58
2023/08/22 06:55:47;;;;;;;13.38;9.55;;;21.20;99.90;;;;;;4991348;28;20608;-57
2023/08/22 06:58:13;;;;;;;13.73;9.35;;;21.30;99.90;;;;;;4995345;28;20076;-57
2023/08/22 07:00:39;;;;;;;11.95;8.77;;;21.70;99.90;;;;;;4987087;28;20389;-58
2023/08/22 07:03:05;;;;;;;14.93;8.88;;;21.90;99.90;;;;;;4993121;28;20429;-57
2023/08/22 07:05:31;;;;;;;10.40;8.43;;;22.00;99.90;;;;;;4991668;28;20077;-55
2023/08/22 07:07:57;;;;;;;11.70;9.23;;;22.00;99.90;;;;;;4985480;28;20046;-58
2023/08/22 07:10:22;;;;;;;14.85;8.98;;;22.00;99.90;;;;;;4989243;28;20133;-58
2023/08/22 07:12:48;;;;;;;13.88;8.23;;;22.10;99.90;;;;;;5002595;28;20037;-59
2023/08/22 07:15:14;;;;;;;12.68;8.43;;;22.10;99.90;;;;;;4986197;28;20070;-58
2023/08/22 07:17:39;;;;;;;12.30;8.68;;;22.20;99.90;;;;;;4985301;28;20157;-58
2023/08/22 07:20:06;;;;;;;12.45;8.73;;;22.20;99.90;;;;;;4986584;28;20047;-58
2023/08/22 07:22:33;;;;;;;15.68;9.05;;;22.10;99.90;;;;;;4992646;28;20054;-56
2023/08/22 07:24:59;;;;;;;12.73;7.97;;;22.10;99.90;;;;;;5005422;28;20041;-59
2023/08/22 07:27:25;;;;;;;14.80;8.43;;;22.20;99.90;;;;;;5001593;28;20380;-58
2023/08/22 07:29:50;;;;;;;14.57;8.20;;;22.40;99.90;;;;;;5001077;28;20124;-58
2023/08/22 07:32:19;;;;;;;13.82;7.35;;;22.70;99.90;;;;;;4997167;28;20128;-56
2023/08/22 07:34:45;;;;;;;11.75;8.00;;;22.70;99.90;;;;;;5000570;28;20054;-58
2023/08/22 07:37:12;;;;;;;9.70;7.50;;;22.60;99.90;;;;;;4988268;28;20053;-59
2023/08/22 07:39:38;;;;;;;10.32;7.60;;;22.70;99.90;;;;;;5005460;28;20168;-58
2023/08/22 07:42:04;;;;;;;11.23;7.20;;;22.70;99.90;;;;;;5004737;28;20125;-56
2023/08/22 07:44:30;;;;;;;14.07;7.40;;;22.80;99.90;;;;;;4984702;28;20089;-58
2023/08/22 07:46:56;;;;;;;11.43;7.18;;;22.70;99.90;;;;;;4985039;28;20069;-58
2023/08/22 07:49:23;;;;;;;11.52;6.68;;;22.70;99.90;;;;;;5013962;28;20045;-58
2023/08/22 07:51:49;;;;;;;10.40;6.68;;;22.50;99.90;;;;;;4991674;28;20962;-55
2023/08/22 07:54:14;;;;;;;10.93;5.53;;;22.50;99.90;;;;;;4995599;28;20085;-57
2023/08/22 07:56:40;;;;;;;9.15;5.43;;;22.40;99.90;;;;;;4998398;28;20117;-54
2023/08/22 07:59:06;;;;;;;9.27;5.90;;;22.50;99.90;;;;;;4985932;28;20077;-57
2023/08/22 08:01:32;;;;;;;13.38;6.25;;;22.60;99.90;;;;;;4984941;28;20517;-58
2023/08/22 08:03:58;;;;;;;9.55;5.85;;;22.70;99.90;;;;;;4991780;28;20463;-58
2023/08/22 08:06:24;;;;;;;12.07;5.18;;;22.60;99.90;;;;;;4989570;28;20042;-58
2023/08/22 08:08:50;;;;;;;15.70;5.20;;;22.40;99.90;;;;;;4985487;28;20132;-58
2023/08/22 08:11:15;;;;;;;9.57;5.25;;;22.20;99.90;;;;;;4984776;28;20393;-58
2023/08/22 08:13:41;;;;;;;8.15;4.50;;;22.10;99.90;;;;;;4984461;28;20050;-58
2023/08/22 08:16:07;;;;;;;6.75;3.83;;;22.20;99.90;;;;;;4985794;28;20073;-58
2023/08/22 08:18:32;;;;;;;7.55;3.72;;;22.20;99.90;;;;;;4985855;28;20057;-58
2023/08/22 08:20:58;;;;;;;6.57;3.45;;;22.30;99.90;;;;;;4985654;28;20034;-58
2023/08/22 08:23:23;;;;;;;8.27;3.30;;;22.30;99.90;;;;;;4987822;28;20054;-58
2023/08/22 08:25:49;;;;;;;5.72;3.00;;;22.30;99.90;;;;;;4993880;28;20048;-57
2023/08/22 08:28:15;;;;;;;5.85;2.90;;;22.40;99.90;;;;;;4991393;28;20041;-58
2023/08/22 08:30:40;;;;;;;6.10;2.85;;;22.40;99.90;;;;;;4988950;28;20607;-58
2023/08/22 08:33:07;;;;;;;5.25;2.50;;;22.70;99.90;;;;;;4991877;28;20046;-58
2023/08/22 08:35:33;;;;;;;6.97;2.20;;;23.00;99.90;;;;;;4992537;28;20050;-58
2023/08/22 08:37:59;;;;;;;4.65;1.90;;;23.30;99.90;;;;;;4997452;28;20045;-58
2023/08/22 08:40:29;;;;;;;5.85;1.77;;;23.40;99.10;;;;;;4996292;28;20120;-58
2023/08/22 08:42:55;;;;;;;4.53;1.80;;;23.60;99.20;;;;;;4991700;28;20073;-57
2023/08/22 08:45:22;;;;;;;5.78;1.90;;;23.50;98.00;;;;;;4991432;28;20046;-58
2023/08/22 08:47:48;;;;;;;7.03;2.03;;;23.10;98.50;;;;;;4994767;28;20042;-59
2023/08/22 08:50:14;;;;;;;5.25;1.60;;;23.00;99.00;;;;;;4993274;28;20184;-56
2023/08/22 08:52:45;;;;;;;5.43;1.38;;;23.00;99.10;;;;;;4985092;28;20046;-59
2023/08/22 08:55:11;;;;;;;6.38;1.67;;;23.00;97.60;;;;;;4986890;28;20463;-59
2023/08/22 08:57:36;;;;;;;5.03;1.63;;;22.90;97.80;;;;;;4989958;28;20038;-56
2023/08/22 09:00:03;;;;;;;5.03;1.55;;;23.00;98.20;;;;;;4996681;28;20065;-58
2023/08/22 09:02:28;;;;;;;6.93;1.88;;;23.10;98.00;;;;;;4995109;28;20044;-58
2023/08/22 09:04:54;;;;;;;4.10;1.48;;;23.30;98.00;;;;;;4997657;28;20591;-58
2023/08/22 09:07:20;;;;;;;3.35;1.42;;;23.50;97.70;;;;;;4997296;28;20042;-59
2023/08/22 09:09:45;;;;;;;4.25;1.50;;;23.60;97.60;;;;;;5002952;28;20547;-58
2023/08/22 09:12:13;;;;;;;4.53;1.60;;;23.80;97.80;;;;;;5003226;28;20911;-59
2023/08/22 09:14:47;;;;;;;2.75;1.23;;;24.50;97.20;;;;;;4996671;28;20069;-58
2023/08/22 09:17:14;;;;;;;3.17;1.50;;;24.10;96.70;;;;;;5006250;28;20535;-58
2023/08/22 09:19:41;;;;;;;6.32;1.48;;;24.20;96.40;;;;;;4990709;28;20517;-59
2023/08/22 09:22:06;;;;;;;2.88;1.20;;;24.30;96.70;;;;;;5005156;28;20034;-59
2023/08/22 09:24:34;;;;;;;3.55;1.60;;;24.50;97.10;;;;;;5006895;28;20050;-58
2023/08/22 09:27:02;;;;;;;4.43;1.40;;;24.60;96.50;;;;;;4999498;28;20042;-56
2023/08/22 09:29:29;;;;;;;3.65;1.40;;;24.60;96.50;;;;;;4998710;28;20042;-59
2023/08/22 09:31:57;;;;;;;5.35;1.90;;;25.00;96.90;;;;;;5006194;28;20137;-59
2023/08/22 09:34:23;;;;;;;3.08;1.40;;;25.30;96.40;;;;;;4998894;28;20582;-57
2023/08/22 09:36:52;;;;;;;4.10;1.70;;;25.40;96.20;;;;;;5002248;28;20037;-60
2023/08/22 09:39:20;;;;;;;3.55;1.77;;;25.40;96.00;;;;;;5002475;28;20046;-60
2023/08/22 09:41:53;;;;;;;4.65;1.73;;;25.60;95.50;;;;;;4987479;28;20086;-56
2023/08/22 09:44:22;;;;;;;4.95;2.05;;;25.40;96.00;;;;;;4996272;28;20046;-55
2023/08/22 09:46:50;;;;;;;6.00;1.85;;;25.40;96.30;;;;;;5007585;28;20475;-60
2023/08/22 09:49:16;;;;;;;4.40;1.63;;;25.30;95.80;;;;;;5006604;28;20053;-60
2023/08/22 09:51:47;;;;;;;4.38;1.38;;;25.20;95.20;;;;;;5007487;28;20050;-55
2023/08/22 09:54:16;;;;;;;4.72;1.60;;;24.90;94.90;;;;;;5007218;28;20146;-58
2023/08/22 09:56:42;;;;;;;3.75;1.27;;;24.80;94.90;;;;;;5000411;28;20060;-58
2023/08/22 09:59:08;;;;;;;3.03;1.40;;;24.90;95.00;;;;;;4988357;28;20482;-55
2023/08/22 10:01:41;;;;;;;4.93;1.45;;;25.10;94.00;;;;;;5001460;28;20049;-56
2023/08/22 10:04:08;;;;;;;3.53;1.50;;;25.30;93.70;;;;;;5006573;28;20054;-58
2023/08/22 10:06:37;;;;;;;3.53;1.40;;;25.30;93.90;;;;;;5007507;28;20042;-58
2023/08/22 10:09:07;;;;;;;5.80;1.75;;;25.40;93.70;;;;;;5007307;28;20558;-59
2023/08/22 10:11:50;;;;;;;4.53;1.63;;;25.40;93.50;;;;;;5007228;28;20050;-56
2023/08/22 10:14:35;;;;;;;4.45;1.70;;;25.40;93.70;;;;;;5006135;28;20053;-60
2023/08/22 10:17:02;;;;;;;3.58;1.40;;;25.60;93.70;;;;;;5005115;28;20520;-59
2023/08/22 10:19:30;;;;;;;3.10;1.50;;;25.60;92.90;;;;;;5006488;28;20799;-59
2023/08/22 10:22:14;;;;;;;3.70;1.70;;;25.60;93.30;;;;;;5006779;28;20107;-59
2023/08/22 10:24:41;;;;;;;3.58;1.80;;;25.70;93.70;;;;;;5006797;28;20050;-60
2023/08/22 10:27:16;;;;;;;3.45;1.75;;;25.70;93.30;;;;;;5006709;28;20108;-60
2023/08/22 10:29:46;;;;;;;4.53;1.55;;;25.80;93.00;;;;;;5005999;28;20133;-60
2023/08/22 10:32:12;;;;;;;5.78;1.50;;;25.60;93.30;;;;;;5005047;28;21023;-58
2023/08/22 10:34:37;;;;;;;4.32;1.75;;;25.60;92.90;;;;;;5006282;28;20042;-57
2023/08/22 10:37:05;;;;;;;5.20;1.80;;;25.50;92.90;;;;;;5007234;28;20865;-58
2023/08/22 10:39:38;;;;;;;3.63;1.58;;;25.50;92.90;;;;;;5006245;28;20113;-59
2023/08/22 10:42:05;;;;;;;6.75;2.03;;;25.30;93.00;;;;;;5007250;28;20046;-59
2023/08/22 10:44:31;;;;;;;3.25;1.42;;;25.40;93.10;;;;;;5006128;28;20104;-59
2023/08/22 10:47:07;;;;;;;5.50;1.55;;;25.60;93.20;;;;;;4988152;28;20074;-58
2023/08/22 10:49:39;;;;;;;3.22;1.48;;;25.80;93.20;;;;;;4994574;28;20092;-59
2023/08/22 10:52:11;;;;;;;4.20;1.50;;;25.90;93.30;;;;;;5006842;28;20078;-59
2023/08/22 10:55:03;;;;;;;4.32;1.55;;;26.00;92.70;;;;;;5005878;28;20093;-59
2023/08/22 10:57:32;;;;;;;2.90;1.38;;;26.10;92.90;;;;;;4994937;28;20160;-57
2023/08/22 11:00:19;;;;;;;4.07;1.80;;;26.20;93.20;;;;;;5006548;28;20064;-59
2023/08/22 11:02:47;;;;;;;7.72;1.52;;;26.30;93.10;;;;;;5006432;28;20053;-58
2023/08/22 11:05:14;;;;;;;5.70;1.85;;;26.40;92.80;;;;;;5020834;28;20045;-60
2023/08/22 11:07:41;;;;;;;2.97;1.33;;;26.40;92.90;;;;;;5026032;28;20073;-56
2023/08/22 11:10:08;;;;;;;2.67;1.40;;;26.40;92.40;;;;;;5005963;28;20034;-59
2023/08/22 11:12:35;;;;;;;5.32;2.00;;;26.40;92.60;;;;;;5005321;28;20046;-60
2023/08/22 11:15:00;;;;;;;5.13;1.60;;;26.40;92.30;;;;;;5005849;28;20057;-59
2023/08/22 11:17:26;;;;;;;2.92;1.38;;;26.40;92.70;;;;;;5005939;28;20650;-57
2023/08/22 11:19:53;;;;;;;4.10;1.30;;;26.40;92.10;;;;;;5005042;28;20081;-59
2023/08/22 11:22:19;;;;;;;2.75;1.30;;;26.40;92.60;;;;;;5004367;28;20045;-60
2023/08/22 11:24:46;;;;;;;3.72;1.30;;;26.50;92.20;;;;;;5004838;28;20080;-59
2023/08/22 11:27:16;;;;;;;2.65;1.13;;;26.60;91.80;;;;;;5003956;28;20042;-59
2023/08/22 11:29:50;;;;;;;2.20;1.20;;;26.50;91.70;;;;;;5001413;28;20129;-60
2023/08/22 11:32:30;;;;;;;3.05;1.20;;;26.40;91.50;;;;;;5000697;28;20054;-56
2023/08/22 11:34:59;;;;;;;4.85;1.33;;;26.50;91.40;;;;;;4999477;28;20084;-57
2023/08/22 11:37:25;;;;;;;2.85;1.27;;;26.60;91.60;;;;;;5004026;28;20049;-58
2023/08/22 11:39:53;;;;;;;4.75;1.30;;;26.60;90.90;;;;;;5005393;28;20117;-59
2023/08/22 11:42:20;;;;;;;1.85;1.20;;;26.60;91.60;;;;;;5004420;28;20037;-60
2023/08/22 11:45:04;;;;;;;3.65;1.30;;;26.60;92.00;;;;;;5005385;28;20059;-58
2023/08/22 11:47:49;;;;;;;2.63;1.20;;;26.70;91.90;;;;;;5003771;28;20050;-59
2023/08/22 11:50:18;;;;;;;4.13;1.33;;;26.80;91.90;;;;;;5005754;28;20462;-58
2023/08/22 11:52:45;;;;;;;3.83;1.15;;;26.90;92.00;;;;;;5005779;28;20433;-59
2023/08/22 11:55:14;;;;;;;3.05;1.48;;;27.10;92.10;;;;;;5000740;28;20044;-59
2023/08/22 11:57:41;;;;;;;5.07;1.48;;;27.20;91.90;;;;;;4994135;28;20053;-59
2023/08/22 12:00:09;;;;;;;3.42;1.55;;;27.30;91.80;;;;;;4993173;28;20044;-59
2023/08/22 12:02:36;;;;;;;4.47;1.70;;;27.40;91.20;;;;;;5004171;28;20045;-61
2023/08/22 12:05:03;;;;;;;9.60;1.63;;;27.40;90.90;;;;;;4984756;28;20114;-57
2023/08/22 12:07:29;;;;;;;3.22;1.70;;;27.30;90.60;;;;;;4985232;28;20100;-58
2023/08/22 12:09:59;;;;;;;3.70;1.60;;;27.10;90.70;;;;;;4984222;28;20409;-58
2023/08/22 12:12:25;;;;;;;4.05;1.35;;;27.10;90.80;;;;;;4983751;28;20046;-57
2023/08/22 12:14:51;;;;;;;3.50;1.60;;;27.10;89.70;;;;;;4984943;28;20072;-57
2023/08/22 12:17:17;;;;;;;4.40;1.48;;;27.20;89.70;;;;;;4984357;28;20077;-58
2023/08/22 12:19:43;;;;;;;2.50;1.40;;;27.10;90.20;;;;;;4985111;28;20046;-58
2023/08/22 12:22:09;;;;;;;2.97;1.60;;;27.10;90.00;;;;;;4988383;28;20141;-55
2023/08/22 12:24:34;;;;;;;2.63;1.30;;;27.00;89.70;;;;;;4988861;28;20132;-58
2023/08/22 12:27:00;;;;;;;5.85;1.30;;;27.00;90.50;;;;;;5001327;28;20042;-57
2023/08/22 12:29:26;;;;;;;2.22;1.20;;;27.10;90.30;;;;;;4985687;28;20050;-58
2023/08/22 12:31:51;;;;;;;2.63;1.10;;;27.20;90.00;;;;;;4984823;28;20047;-57
2023/08/22 12:34:17;;;;;;;4.13;1.33;;;27.20;89.70;;;;;;4999298;28;20405;-57
2023/08/22 12:36:43;;;;;;;4.03;1.20;;;27.20;90.40;;;;;;5005933;28;20126;-57